Terminal Aerodrome Forecast
Issued by NWS

Home | Current Version | Previous Version | Text Only | Print | Product List | Glossary On
Versions: 1 2 3 4 5 6 7 8 9 10 11 12 13 14 15 16 17 18 19 20 21 22 23
000
FTUS41 KPBZ 271100
TAFHLG
TAF
KHLG 271120Z 2712/2812 29005KT 3SM BR SCT005 OVC035
     FM271500 29008KT 6SM -SHSN BR SCT012 OVC025
     FM272300 29009KT P6SM OVC025=

USA.gov is the U.S. government's official web portal to all federal, state and local government web resources and services.